sensor_id;sensor_type;location;lat;lon;timestamp;P1;durP1;ratioP1;P2;durP2;ratioP2
21979;SDS011;11154;48.558;9.234;2023-02-01T00:00:56;4.15;;;2.15;;
21979;SDS011;11154;48.558;9.234;2023-02-01T00:02:58;5.43;;;2.17;;
21979;SDS011;11154;48.558;9.234;2023-02-01T00:05:00;3.13;;;2.28;;
21979;SDS011;11154;48.558;9.234;2023-02-01T00:07:01;3.63;;;2.05;;
21979;SDS011;11154;48.558;9.234;2023-02-01T00:09:03;4.03;;;2.33;;
21979;SDS011;11154;48.558;9.234;2023-02-01T00:11:06;4.10;;;2.40;;
21979;SDS011;11154;48.558;9.234;2023-02-01T00:13:09;2.60;;;1.92;;
21979;SDS011;11154;48.558;9.234;2023-02-01T00:15:11;2.33;;;1.80;;
21979;SDS011;11154;48.558;9.234;2023-02-01T00:17:14;4.07;;;2.28;;
21979;SDS011;11154;48.558;9.234;2023-02-01T00:19:15;4.63;;;2.40;;
21979;SDS011;11154;48.558;9.234;2023-02-01T00:21:18;2.88;;;2.00;;
21979;SDS011;11154;48.558;9.234;2023-02-01T00:23:21;3.33;;;2.00;;
21979;SDS011;11154;48.558;9.234;2023-02-01T00:25:23;3.70;;;1.95;;
21979;SDS011;11154;48.558;9.234;2023-02-01T00:27:24;2.72;;;2.05;;
21979;SDS011;11154;48.558;9.234;2023-02-01T00:29:26;2.95;;;1.95;;
21979;SDS011;11154;48.558;9.234;2023-02-01T00:31:28;2.38;;;1.63;;
21979;SDS011;11154;48.558;9.234;2023-02-01T00:33:31;3.08;;;1.80;;
21979;SDS011;11154;48.558;9.234;2023-02-01T00:35:33;2.65;;;1.67;;
21979;SDS011;11154;48.558;9.234;2023-02-01T00:37:35;2.40;;;2.03;;
21979;SDS011;11154;48.558;9.234;2023-02-01T00:39:37;3.05;;;1.70;;
21979;SDS011;11154;48.558;9.234;2023-02-01T00:41:38;2.92;;;1.88;;
21979;SDS011;11154;48.558;9.234;2023-02-01T00:43:41;1.83;;;1.60;;
21979;SDS011;11154;48.558;9.234;2023-02-01T00:45:43;3.45;;;1.50;;
21979;SDS011;11154;48.558;9.234;2023-02-01T00:47:46;3.28;;;1.50;;
21979;SDS011;11154;48.558;9.234;2023-02-01T00:49:49;3.22;;;1.77;;
21979;SDS011;11154;48.558;9.234;2023-02-01T00:51:50;1.70;;;1.40;;
21979;SDS011;11154;48.558;9.234;2023-02-01T00:53:52;2.42;;;1.55;;
21979;SDS011;11154;48.558;9.234;2023-02-01T00:55:54;3.55;;;1.65;;
21979;SDS011;11154;48.558;9.234;2023-02-01T00:57:56;2.72;;;1.70;;
21979;SDS011;11154;48.558;9.234;2023-02-01T00:59:57;2.00;;;1.42;;
21979;SDS011;11154;48.558;9.234;2023-02-01T01:01:59;1.90;;;1.45;;
21979;SDS011;11154;48.558;9.234;2023-02-01T01:04:01;3.08;;;1.50;;
21979;SDS011;11154;48.558;9.234;2023-02-01T01:06:05;2.92;;;1.40;;
21979;SDS011;11154;48.558;9.234;2023-02-01T01:08:09;1.67;;;1.25;;
21979;SDS011;11154;48.558;9.234;2023-02-01T01:10:10;3.75;;;1.60;;
21979;SDS011;11154;48.558;9.234;2023-02-01T01:12:12;1.50;;;1.20;;
21979;SDS011;11154;48.558;9.234;2023-02-01T01:14:14;1.60;;;1.20;;
21979;SDS011;11154;48.558;9.234;2023-02-01T01:16:16;1.98;;;1.33;;
21979;SDS011;11154;48.558;9.234;2023-02-01T01:18:18;2.40;;;1.20;;
21979;SDS011;11154;48.558;9.234;2023-02-01T01:20:19;1.83;;;1.42;;
21979;SDS011;11154;48.558;9.234;2023-02-01T01:22:23;2.28;;;1.40;;
21979;SDS011;11154;48.558;9.234;2023-02-01T01:24:24;1.55;;;1.10;;
21979;SDS011;11154;48.558;9.234;2023-02-01T01:26:26;3.17;;;1.30;;
21979;SDS011;11154;48.558;9.234;2023-02-01T01:28:29;2.15;;;1.17;;
21979;SDS011;11154;48.558;9.234;2023-02-01T01:30:31;1.73;;;1.15;;
21979;SDS011;11154;48.558;9.234;2023-02-01T01:32:33;1.25;;;1.10;;
21979;SDS011;11154;48.558;9.234;2023-02-01T01:34:34;2.10;;;1.20;;
21979;SDS011;11154;48.558;9.234;2023-02-01T01:36:36;1.50;;;1.02;;
21979;SDS011;11154;48.558;9.234;2023-02-01T01:38:39;2.78;;;1.30;;
21979;SDS011;11154;48.558;9.234;2023-02-01T01:40:44;1.60;;;1.08;;
21979;SDS011;11154;48.558;9.234;2023-02-01T01:42:46;1.70;;;1.10;;
21979;SDS011;11154;48.558;9.234;2023-02-01T01:45:02;2.63;;;1.50;;
21979;SDS011;11154;48.558;9.234;2023-02-01T01:47:05;1.08;;;0.95;;
21979;SDS011;11154;48.558;9.234;2023-02-01T01:49:07;1.63;;;0.98;;
21979;SDS011;11154;48.558;9.234;2023-02-01T01:51:12;1.58;;;1.00;;
21979;SDS011;11154;48.558;9.234;2023-02-01T01:53:19;1.30;;;1.00;;
21979;SDS011;11154;48.558;9.234;2023-02-01T01:55:27;1.10;;;1.00;;
21979;SDS011;11154;48.558;9.234;2023-02-01T01:57:35;1.77;;;1.20;;
21979;SDS011;11154;48.558;9.234;2023-02-01T01:59:41;1.27;;;0.90;;
21979;SDS011;11154;48.558;9.234;2023-02-01T02:01:48;0.77;;;0.73;;
21979;SDS011;11154;48.558;9.234;2023-02-01T02:03:50;0.80;;;0.80;;
21979;SDS011;11154;48.558;9.234;2023-02-01T02:05:53;1.63;;;1.13;;
21979;SDS011;11154;48.558;9.234;2023-02-01T02:07:59;1.08;;;0.77;;
21979;SDS011;11154;48.558;9.234;2023-02-01T02:10:02;1.08;;;0.82;;
21979;SDS011;11154;48.558;9.234;2023-02-01T02:12:09;2.05;;;1.10;;
21979;SDS011;11154;48.558;9.234;2023-02-01T02:14:11;1.10;;;0.90;;
21979;SDS011;11154;48.558;9.234;2023-02-01T02:16:19;2.10;;;1.10;;
21979;SDS011;11154;48.558;9.234;2023-02-01T02:18:35;0.70;;;0.60;;
21979;SDS011;11154;48.558;9.234;2023-02-01T02:21:00;0.77;;;0.60;;
21979;SDS011;11154;48.558;9.234;2023-02-01T02:23:15;1.60;;;0.80;;
21979;SDS011;11154;48.558;9.234;2023-02-01T02:28:19;1.35;;;0.90;;
21979;SDS011;11154;48.558;9.234;2023-02-01T02:30:42;1.98;;;0.80;;
21979;SDS011;11154;48.558;9.234;2023-02-01T02:35:30;1.25;;;0.80;;
21979;SDS011;11154;48.558;9.234;2023-02-01T02:37:40;0.63;;;0.60;;
21979;SDS011;11154;48.558;9.234;2023-02-01T02:39:48;1.75;;;1.00;;
21979;SDS011;11154;48.558;9.234;2023-02-01T02:41:57;1.95;;;0.90;;
21979;SDS011;11154;48.558;9.234;2023-02-01T02:44:23;1.23;;;0.80;;
21979;SDS011;11154;48.558;9.234;2023-02-01T02:46:50;0.85;;;0.80;;
21979;SDS011;11154;48.558;9.234;2023-02-01T02:49:14;1.48;;;0.80;;
21979;SDS011;11154;48.558;9.234;2023-02-01T02:53:46;1.00;;;0.75;;
21979;SDS011;11154;48.558;9.234;2023-02-01T02:56:10;1.52;;;0.90;;
21979;SDS011;11154;48.558;9.234;2023-02-01T02:58:32;0.73;;;0.73;;
21979;SDS011;11154;48.558;9.234;2023-02-01T03:00:51;1.13;;;0.93;;
21979;SDS011;11154;48.558;9.234;2023-02-01T03:03:11;0.50;;;0.50;;
21979;SDS011;11154;48.558;9.234;2023-02-01T03:05:35;1.92;;;1.00;;
21979;SDS011;11154;48.558;9.234;2023-02-01T03:07:54;1.00;;;0.77;;
21979;SDS011;11154;48.558;9.234;2023-02-01T03:10:03;1.38;;;0.90;;
21979;SDS011;11154;48.558;9.234;2023-02-01T03:12:09;1.30;;;0.90;;
21979;SDS011;11154;48.558;9.234;2023-02-01T03:14:32;1.17;;;0.60;;
21979;SDS011;11154;48.558;9.234;2023-02-01T03:16:39;0.70;;;0.70;;
21979;SDS011;11154;48.558;9.234;2023-02-01T03:18:46;0.82;;;0.82;;
21979;SDS011;11154;48.558;9.234;2023-02-01T03:20:53;1.80;;;0.88;;
21979;SDS011;11154;48.558;9.234;2023-02-01T03:22:58;1.40;;;0.80;;
21979;SDS011;11154;48.558;9.234;2023-02-01T03:25:01;1.13;;;0.80;;
21979;SDS011;11154;48.558;9.234;2023-02-01T03:27:07;1.02;;;0.82;;
21979;SDS011;11154;48.558;9.234;2023-02-01T03:29:14;1.45;;;0.82;;
21979;SDS011;11154;48.558;9.234;2023-02-01T03:31:20;0.70;;;0.70;;
21979;SDS011;11154;48.558;9.234;2023-02-01T03:33:23;1.30;;;0.90;;
21979;SDS011;11154;48.558;9.234;2023-02-01T03:35:30;1.17;;;0.95;;
21979;SDS011;11154;48.558;9.234;2023-02-01T03:37:36;0.60;;;0.60;;
21979;SDS011;11154;48.558;9.234;2023-02-01T03:39:39;2.45;;;0.80;;
21979;SDS011;11154;48.558;9.234;2023-02-01T03:41:46;0.77;;;0.77;;
21979;SDS011;11154;48.558;9.234;2023-02-01T03:43:53;1.15;;;0.90;;
21979;SDS011;11154;48.558;9.234;2023-02-01T03:46:00;1.20;;;0.80;;
21979;SDS011;11154;48.558;9.234;2023-02-01T03:48:05;1.00;;;0.80;;
21979;SDS011;11154;48.558;9.234;2023-02-01T03:50:09;0.82;;;0.82;;
21979;SDS011;11154;48.558;9.234;2023-02-01T03:52:16;0.70;;;0.70;;
21979;SDS011;11154;48.558;9.234;2023-02-01T03:54:24;1.08;;;0.80;;
21979;SDS011;11154;48.558;9.234;2023-02-01T03:56:27;1.50;;;1.02;;
21979;SDS011;11154;48.558;9.234;2023-02-01T03:58:30;0.95;;;0.85;;
21979;SDS011;11154;48.558;9.234;2023-02-01T04:00:32;0.90;;;0.80;;
21979;SDS011;11154;48.558;9.234;2023-02-01T04:02:34;0.95;;;0.90;;
21979;SDS011;11154;48.558;9.234;2023-02-01T04:04:36;2.30;;;0.80;;
21979;SDS011;11154;48.558;9.234;2023-02-01T04:06:38;1.25;;;1.13;;
21979;SDS011;11154;48.558;9.234;2023-02-01T04:08:40;0.93;;;0.73;;
21979;SDS011;11154;48.558;9.234;2023-02-01T04:10:43;1.50;;;1.00;;
21979;SDS011;11154;48.558;9.234;2023-02-01T04:12:44;1.58;;;0.93;;
21979;SDS011;11154;48.558;9.234;2023-02-01T04:14:46;0.93;;;0.90;;
21979;SDS011;11154;48.558;9.234;2023-02-01T04:16:47;2.58;;;0.90;;
21979;SDS011;11154;48.558;9.234;2023-02-01T04:18:49;1.30;;;1.00;;
21979;SDS011;11154;48.558;9.234;2023-02-01T04:20:51;1.38;;;0.88;;
21979;SDS011;11154;48.558;9.234;2023-02-01T04:22:52;2.17;;;1.00;;
21979;SDS011;11154;48.558;9.234;2023-02-01T04:24:54;1.02;;;0.80;;
21979;SDS011;11154;48.558;9.234;2023-02-01T04:26:57;0.80;;;0.80;;
21979;SDS011;11154;48.558;9.234;2023-02-01T04:28:59;0.80;;;0.70;;
21979;SDS011;11154;48.558;9.234;2023-02-01T04:31:00;1.15;;;1.00;;
21979;SDS011;11154;48.558;9.234;2023-02-01T04:33:02;1.42;;;1.08;;
21979;SDS011;11154;48.558;9.234;2023-02-01T04:35:06;0.90;;;0.90;;
21979;SDS011;11154;48.558;9.234;2023-02-01T04:37:08;1.10;;;0.93;;
21979;SDS011;11154;48.558;9.234;2023-02-01T04:39:10;0.98;;;0.75;;
21979;SDS011;11154;48.558;9.234;2023-02-01T04:41:12;1.42;;;1.00;;
21979;SDS011;11154;48.558;9.234;2023-02-01T04:43:14;2.05;;;1.35;;
21979;SDS011;11154;48.558;9.234;2023-02-01T04:45:17;1.00;;;0.90;;
21979;SDS011;11154;48.558;9.234;2023-02-01T04:47:18;2.63;;;1.25;;
21979;SDS011;11154;48.558;9.234;2023-02-01T04:49:20;1.33;;;1.00;;
21979;SDS011;11154;48.558;9.234;2023-02-01T04:51:22;1.08;;;0.88;;
21979;SDS011;11154;48.558;9.234;2023-02-01T04:53:23;1.23;;;1.00;;
21979;SDS011;11154;48.558;9.234;2023-02-01T04:55:26;1.40;;;1.00;;
21979;SDS011;11154;48.558;9.234;2023-02-01T04:57:28;1.23;;;0.93;;
21979;SDS011;11154;48.558;9.234;2023-02-01T04:59:31;1.88;;;1.13;;
21979;SDS011;11154;48.558;9.234;2023-02-01T05:01:32;1.15;;;0.70;;
21979;SDS011;11154;48.558;9.234;2023-02-01T05:03:34;1.48;;;0.85;;
21979;SDS011;11154;48.558;9.234;2023-02-01T05:05:36;0.80;;;0.80;;
21979;SDS011;11154;48.558;9.234;2023-02-01T05:07:37;1.00;;;0.80;;
21979;SDS011;11154;48.558;9.234;2023-02-01T05:09:39;2.78;;;1.20;;
21979;SDS011;11154;48.558;9.234;2023-02-01T05:11:41;2.90;;;1.20;;
21979;SDS011;11154;48.558;9.234;2023-02-01T05:14:00;3.67;;;1.08;;
21979;SDS011;11154;48.558;9.234;2023-02-01T05:16:03;1.10;;;1.00;;
21979;SDS011;11154;48.558;9.234;2023-02-01T05:18:05;1.40;;;1.00;;
21979;SDS011;11154;48.558;9.234;2023-02-01T05:20:07;0.70;;;0.70;;
21979;SDS011;11154;48.558;9.234;2023-02-01T05:22:10;1.42;;;1.10;;
21979;SDS011;11154;48.558;9.234;2023-02-01T05:24:12;1.13;;;0.80;;
21979;SDS011;11154;48.558;9.234;2023-02-01T05:26:19;1.70;;;1.13;;
21979;SDS011;11154;48.558;9.234;2023-02-01T05:28:21;1.98;;;1.00;;
21979;SDS011;11154;48.558;9.234;2023-02-01T05:30:23;1.48;;;0.95;;
21979;SDS011;11154;48.558;9.234;2023-02-01T05:32:26;1.27;;;0.90;;
21979;SDS011;11154;48.558;9.234;2023-02-01T05:34:27;0.85;;;0.80;;
21979;SDS011;11154;48.558;9.234;2023-02-01T05:36:29;1.52;;;1.20;;
21979;SDS011;11154;48.558;9.234;2023-02-01T05:38:31;1.55;;;0.98;;
21979;SDS011;11154;48.558;9.234;2023-02-01T05:40:33;0.93;;;0.77;;
21979;SDS011;11154;48.558;9.234;2023-02-01T05:42:35;1.50;;;1.00;;
21979;SDS011;11154;48.558;9.234;2023-02-01T05:44:36;1.80;;;0.95;;
21979;SDS011;11154;48.558;9.234;2023-02-01T05:46:38;1.10;;;0.90;;
21979;SDS011;11154;48.558;9.234;2023-02-01T05:48:43;1.20;;;1.10;;
21979;SDS011;11154;48.558;9.234;2023-02-01T05:50:45;2.60;;;1.17;;
21979;SDS011;11154;48.558;9.234;2023-02-01T05:52:47;1.17;;;0.90;;
21979;SDS011;11154;48.558;9.234;2023-02-01T05:54:48;1.13;;;0.82;;
21979;SDS011;11154;48.558;9.234;2023-02-01T05:56:50;1.92;;;1.00;;
21979;SDS011;11154;48.558;9.234;2023-02-01T05:58:51;1.92;;;0.80;;
21979;SDS011;11154;48.558;9.234;2023-02-01T06:00:53;0.80;;;0.73;;
21979;SDS011;11154;48.558;9.234;2023-02-01T06:02:55;1.00;;;0.90;;
21979;SDS011;11154;48.558;9.234;2023-02-01T06:04:58;2.13;;;1.15;;
21979;SDS011;11154;48.558;9.234;2023-02-01T06:06:59;0.95;;;0.85;;
21979;SDS011;11154;48.558;9.234;2023-02-01T06:09:01;1.23;;;1.00;;
21979;SDS011;11154;48.558;9.234;2023-02-01T06:11:03;2.65;;;1.67;;
21979;SDS011;11154;48.558;9.234;2023-02-01T06:13:06;2.58;;;1.80;;
21979;SDS011;11154;48.558;9.234;2023-02-01T06:15:08;1.02;;;0.90;;
21979;SDS011;11154;48.558;9.234;2023-02-01T06:17:10;3.03;;;0.90;;
21979;SDS011;11154;48.558;9.234;2023-02-01T06:19:12;1.00;;;0.82;;
21979;SDS011;11154;48.558;9.234;2023-02-01T06:21:15;1.58;;;1.10;;
21979;SDS011;11154;48.558;9.234;2023-02-01T06:23:23;1.17;;;0.80;;
21979;SDS011;11154;48.558;9.234;2023-02-01T06:25:25;1.80;;;1.02;;
21979;SDS011;11154;48.558;9.234;2023-02-01T06:27:26;2.28;;;2.08;;
21979;SDS011;11154;48.558;9.234;2023-02-01T06:29:28;3.10;;;2.33;;
21979;SDS011;11154;48.558;9.234;2023-02-01T06:31:30;5.10;;;4.15;;
21979;SDS011;11154;48.558;9.234;2023-02-01T06:33:32;2.90;;;2.60;;
21979;SDS011;11154;48.558;9.234;2023-02-01T06:35:34;1.33;;;1.23;;
21979;SDS011;11154;48.558;9.234;2023-02-01T06:37:37;1.85;;;1.45;;
21979;SDS011;11154;48.558;9.234;2023-02-01T06:39:39;1.67;;;1.00;;
21979;SDS011;11154;48.558;9.234;2023-02-01T06:41:40;2.55;;;1.17;;
21979;SDS011;11154;48.558;9.234;2023-02-01T06:43:42;1.65;;;1.10;;
21979;SDS011;11154;48.558;9.234;2023-02-01T06:45:45;1.98;;;1.10;;
21979;SDS011;11154;48.558;9.234;2023-02-01T06:47:47;2.13;;;0.85;;
21979;SDS011;11154;48.558;9.234;2023-02-01T06:49:48;1.10;;;0.80;;
21979;SDS011;11154;48.558;9.234;2023-02-01T06:51:50;1.17;;;1.00;;
21979;SDS011;11154;48.558;9.234;2023-02-01T06:53:53;0.95;;;0.80;;
21979;SDS011;11154;48.558;9.234;2023-02-01T06:55:55;1.38;;;1.08;;
21979;SDS011;11154;48.558;9.234;2023-02-01T06:57:58;1.83;;;0.85;;
21979;SDS011;11154;48.558;9.234;2023-02-01T07:00:01;0.82;;;0.57;;
21979;SDS011;11154;48.558;9.234;2023-02-01T07:02:03;1.00;;;0.70;;
21979;SDS011;11154;48.558;9.234;2023-02-01T07:04:05;0.68;;;0.68;;
21979;SDS011;11154;48.558;9.234;2023-02-01T07:06:07;2.78;;;0.82;;
21979;SDS011;11154;48.558;9.234;2023-02-01T07:08:10;1.00;;;0.80;;
21979;SDS011;11154;48.558;9.234;2023-02-01T07:10:13;0.82;;;0.80;;
21979;SDS011;11154;48.558;9.234;2023-02-01T07:12:14;0.73;;;0.60;;
21979;SDS011;11154;48.558;9.234;2023-02-01T07:14:16;3.75;;;0.82;;
21979;SDS011;11154;48.558;9.234;2023-02-01T07:16:18;1.48;;;0.98;;
21979;SDS011;11154;48.558;9.234;2023-02-01T07:18:20;0.93;;;0.88;;
21979;SDS011;11154;48.558;9.234;2023-02-01T07:20:22;2.10;;;0.95;;
21979;SDS011;11154;48.558;9.234;2023-02-01T07:22:24;1.85;;;0.80;;
21979;SDS011;11154;48.558;9.234;2023-02-01T07:24:26;2.40;;;1.10;;
21979;SDS011;11154;48.558;9.234;2023-02-01T07:26:28;1.48;;;0.98;;
21979;SDS011;11154;48.558;9.234;2023-02-01T07:28:31;3.22;;;2.33;;
21979;SDS011;11154;48.558;9.234;2023-02-01T07:30:34;7.28;;;5.10;;
21979;SDS011;11154;48.558;9.234;2023-02-01T07:32:36;10.40;;;6.00;;
21979;SDS011;11154;48.558;9.234;2023-02-01T07:34:38;2.40;;;1.58;;
21979;SDS011;11154;48.558;9.234;2023-02-01T07:36:39;5.35;;;2.05;;
21979;SDS011;11154;48.558;9.234;2023-02-01T07:38:42;1.85;;;1.60;;
21979;SDS011;11154;48.558;9.234;2023-02-01T07:40:43;2.13;;;1.50;;
21979;SDS011;11154;48.558;9.234;2023-02-01T07:42:46;3.22;;;1.92;;
21979;SDS011;11154;48.558;9.234;2023-02-01T07:44:49;1.55;;;1.30;;
21979;SDS011;11154;48.558;9.234;2023-02-01T07:46:52;3.10;;;1.10;;
21979;SDS011;11154;48.558;9.234;2023-02-01T07:48:54;1.20;;;1.08;;
21979;SDS011;11154;48.558;9.234;2023-02-01T07:50:56;2.30;;;1.20;;
21979;SDS011;11154;48.558;9.234;2023-02-01T07:52:59;1.70;;;1.20;;
21979;SDS011;11154;48.558;9.234;2023-02-01T07:55:01;1.25;;;1.15;;
21979;SDS011;11154;48.558;9.234;2023-02-01T07:57:03;3.08;;;1.23;;
21979;SDS011;11154;48.558;9.234;2023-02-01T07:59:06;2.72;;;2.08;;
21979;SDS011;11154;48.558;9.234;2023-02-01T08:01:11;2.53;;;2.13;;
21979;SDS011;11154;48.558;9.234;2023-02-01T08:03:20;3.33;;;1.40;;
21979;SDS011;11154;48.558;9.234;2023-02-01T08:05:21;1.85;;;1.00;;
21979;SDS011;11154;48.558;9.234;2023-02-01T08:07:23;1.30;;;1.20;;
21979;SDS011;11154;48.558;9.234;2023-02-01T08:09:24;1.77;;;1.50;;
21979;SDS011;11154;48.558;9.234;2023-02-01T08:11:26;3.97;;;2.55;;
21979;SDS011;11154;48.558;9.234;2023-02-01T08:13:28;5.05;;;3.00;;
21979;SDS011;11154;48.558;9.234;2023-02-01T08:15:31;8.82;;;5.60;;
21979;SDS011;11154;48.558;9.234;2023-02-01T08:17:33;8.45;;;5.15;;
21979;SDS011;11154;48.558;9.234;2023-02-01T08:19:35;4.28;;;3.33;;
21979;SDS011;11154;48.558;9.234;2023-02-01T08:21:36;6.22;;;3.50;;
21979;SDS011;11154;48.558;9.234;2023-02-01T08:23:38;9.60;;;6.38;;
21979;SDS011;11154;48.558;9.234;2023-02-01T08:25:41;9.43;;;6.45;;
21979;SDS011;11154;48.558;9.234;2023-02-01T08:27:42;5.18;;;3.65;;
21979;SDS011;11154;48.558;9.234;2023-02-01T08:29:44;2.92;;;1.95;;
21979;SDS011;11154;48.558;9.234;2023-02-01T08:31:47;1.50;;;1.17;;
21979;SDS011;11154;48.558;9.234;2023-02-01T08:33:49;2.15;;;1.30;;
21979;SDS011;11154;48.558;9.234;2023-02-01T08:35:52;2.40;;;1.30;;
21979;SDS011;11154;48.558;9.234;2023-02-01T08:37:54;2.13;;;1.20;;
21979;SDS011;11154;48.558;9.234;2023-02-01T08:39:56;1.77;;;1.23;;
21979;SDS011;11154;48.558;9.234;2023-02-01T08:41:57;1.65;;;1.10;;
21979;SDS011;11154;48.558;9.234;2023-02-01T08:44:16;2.03;;;1.10;;
21979;SDS011;11154;48.558;9.234;2023-02-01T08:46:18;4.57;;;2.10;;
21979;SDS011;11154;48.558;9.234;2023-02-01T08:48:21;2.08;;;1.13;;
21979;SDS011;11154;48.558;9.234;2023-02-01T08:50:23;2.13;;;0.90;;
21979;SDS011;11154;48.558;9.234;2023-02-01T08:52:26;1.35;;;0.85;;
21979;SDS011;11154;48.558;9.234;2023-02-01T08:54:27;2.50;;;1.48;;
21979;SDS011;11154;48.558;9.234;2023-02-01T08:56:29;5.55;;;3.10;;
21979;SDS011;11154;48.558;9.234;2023-02-01T08:58:30;2.67;;;1.63;;
21979;SDS011;11154;48.558;9.234;2023-02-01T09:00:32;1.60;;;1.40;;
21979;SDS011;11154;48.558;9.234;2023-02-01T09:02:34;1.95;;;1.50;;
21979;SDS011;11154;48.558;9.234;2023-02-01T09:04:37;2.22;;;1.70;;
21979;SDS011;11154;48.558;9.234;2023-02-01T09:06:39;2.25;;;1.10;;
21979;SDS011;11154;48.558;9.234;2023-02-01T09:08:42;1.95;;;0.90;;
21979;SDS011;11154;48.558;9.234;2023-02-01T09:10:44;2.65;;;1.10;;
21979;SDS011;11154;48.558;9.234;2023-02-01T09:12:45;2.38;;;1.13;;
21979;SDS011;11154;48.558;9.234;2023-02-01T09:14:47;1.85;;;1.05;;
21979;SDS011;11154;48.558;9.234;2023-02-01T09:16:49;2.40;;;0.90;;
21979;SDS011;11154;48.558;9.234;2023-02-01T09:18:50;2.03;;;1.20;;
21979;SDS011;11154;48.558;9.234;2023-02-01T09:20:53;2.50;;;0.95;;
21979;SDS011;11154;48.558;9.234;2023-02-01T09:22:55;2.33;;;1.20;;
21979;SDS011;11154;48.558;9.234;2023-02-01T09:24:57;3.70;;;1.50;;
21979;SDS011;11154;48.558;9.234;2023-02-01T09:26:59;2.33;;;1.13;;
21979;SDS011;11154;48.558;9.234;2023-02-01T09:29:00;2.03;;;1.25;;
21979;SDS011;11154;48.558;9.234;2023-02-01T09:31:03;1.55;;;1.10;;
21979;SDS011;11154;48.558;9.234;2023-02-01T09:33:05;2.60;;;1.00;;
21979;SDS011;11154;48.558;9.234;2023-02-01T09:35:06;1.60;;;1.10;;
21979;SDS011;11154;48.558;9.234;2023-02-01T09:37:10;5.90;;;3.30;;
21979;SDS011;11154;48.558;9.234;2023-02-01T09:39:11;12.00;;;6.43;;
21979;SDS011;11154;48.558;9.234;2023-02-01T09:41:17;8.65;;;4.50;;
21979;SDS011;11154;48.558;9.234;2023-02-01T09:43:35;3.30;;;2.00;;
21979;SDS011;11154;48.558;9.234;2023-02-01T09:45:44;3.33;;;1.45;;
21979;SDS011;11154;48.558;9.234;2023-02-01T09:47:53;4.80;;;1.50;;
21979;SDS011;11154;48.558;9.234;2023-02-01T09:49:58;3.75;;;1.50;;
21979;SDS011;11154;48.558;9.234;2023-02-01T09:52:04;4.63;;;2.13;;
21979;SDS011;11154;48.558;9.234;2023-02-01T09:54:11;2.80;;;1.20;;
21979;SDS011;11154;48.558;9.234;2023-02-01T09:56:18;3.33;;;1.58;;
21979;SDS011;11154;48.558;9.234;2023-02-01T09:58:27;2.75;;;1.60;;
21979;SDS011;11154;48.558;9.234;2023-02-01T10:00:34;3.90;;;1.80;;
21979;SDS011;11154;48.558;9.234;2023-02-01T10:02:38;4.47;;;1.80;;
21979;SDS011;11154;48.558;9.234;2023-02-01T10:04:41;4.75;;;2.05;;
21979;SDS011;11154;48.558;9.234;2023-02-01T10:06:49;4.30;;;1.50;;
21979;SDS011;11154;48.558;9.234;2023-02-01T10:09:12;3.67;;;1.40;;
21979;SDS011;11154;48.558;9.234;2023-02-01T10:11:24;3.75;;;1.48;;
21979;SDS011;11154;48.558;9.234;2023-02-01T10:13:50;3.70;;;1.80;;
21979;SDS011;11154;48.558;9.234;2023-02-01T10:16:03;3.08;;;1.33;;
21979;SDS011;11154;48.558;9.234;2023-02-01T10:18:27;4.60;;;2.67;;
21979;SDS011;11154;48.558;9.234;2023-02-01T10:20:43;4.47;;;1.90;;
21979;SDS011;11154;48.558;9.234;2023-02-01T10:22:55;3.45;;;1.50;;
21979;SDS011;11154;48.558;9.234;2023-02-01T10:25:07;4.32;;;1.50;;
21979;SDS011;11154;48.558;9.234;2023-02-01T10:27:16;4.47;;;1.80;;
21979;SDS011;11154;48.558;9.234;2023-02-01T10:29:21;8.95;;;3.75;;
21979;SDS011;11154;48.558;9.234;2023-02-01T10:31:26;10.95;;;6.10;;
21979;SDS011;11154;48.558;9.234;2023-02-01T10:33:32;3.38;;;1.75;;
21979;SDS011;11154;48.558;9.234;2023-02-01T10:35:36;5.05;;;1.67;;
21979;SDS011;11154;48.558;9.234;2023-02-01T10:37:38;5.20;;;1.60;;
21979;SDS011;11154;48.558;9.234;2023-02-01T10:39:43;5.88;;;1.65;;
21979;SDS011;11154;48.558;9.234;2023-02-01T10:41:47;4.70;;;1.75;;
21979;SDS011;11154;48.558;9.234;2023-02-01T10:43:50;5.70;;;1.45;;
21979;SDS011;11154;48.558;9.234;2023-02-01T10:45:55;3.97;;;1.55;;
21979;SDS011;11154;48.558;9.234;2023-02-01T10:47:58;4.85;;;1.40;;
21979;SDS011;11154;48.558;9.234;2023-02-01T10:50:03;5.10;;;1.80;;
21979;SDS011;11154;48.558;9.234;2023-02-01T10:52:16;4.88;;;1.58;;
21979;SDS011;11154;48.558;9.234;2023-02-01T10:54:21;5.93;;;1.52;;
21979;SDS011;11154;48.558;9.234;2023-02-01T10:56:34;3.00;;;1.55;;
21979;SDS011;11154;48.558;9.234;2023-02-01T10:58:44;5.55;;;1.60;;
21979;SDS011;11154;48.558;9.234;2023-02-01T11:00:48;6.30;;;1.90;;
21979;SDS011;11154;48.558;9.234;2023-02-01T11:02:53;5.60;;;1.70;;
21979;SDS011;11154;48.558;9.234;2023-02-01T11:05:00;6.07;;;1.52;;
21979;SDS011;11154;48.558;9.234;2023-02-01T11:07:05;3.55;;;1.77;;
21979;SDS011;11154;48.558;9.234;2023-02-01T11:09:16;7.07;;;2.22;;
21979;SDS011;11154;48.558;9.234;2023-02-01T11:11:21;6.78;;;1.52;;
21979;SDS011;11154;48.558;9.234;2023-02-01T11:13:27;7.05;;;1.65;;
21979;SDS011;11154;48.558;9.234;2023-02-01T11:15:32;4.32;;;1.40;;
21979;SDS011;11154;48.558;9.234;2023-02-01T11:17:34;4.55;;;1.48;;
21979;SDS011;11154;48.558;9.234;2023-02-01T11:19:42;5.38;;;2.10;;
21979;SDS011;11154;48.558;9.234;2023-02-01T11:21:48;6.47;;;2.95;;
21979;SDS011;11154;48.558;9.234;2023-02-01T11:23:51;7.13;;;2.72;;
21979;SDS011;11154;48.558;9.234;2023-02-01T11:25:53;6.20;;;1.70;;
21979;SDS011;11154;48.558;9.234;2023-02-01T11:27:57;6.55;;;1.90;;
21979;SDS011;11154;48.558;9.234;2023-02-01T11:29:59;7.40;;;2.10;;
21979;SDS011;11154;48.558;9.234;2023-02-01T11:32:05;5.45;;;1.52;;
21979;SDS011;11154;48.558;9.234;2023-02-01T11:34:11;5.68;;;1.73;;
21979;SDS011;11154;48.558;9.234;2023-02-01T11:36:16;5.50;;;2.00;;
21979;SDS011;11154;48.558;9.234;2023-02-01T11:38:21;4.80;;;1.90;;
21979;SDS011;11154;48.558;9.234;2023-02-01T11:40:28;4.70;;;1.38;;
21979;SDS011;11154;48.558;9.234;2023-02-01T11:42:35;7.20;;;2.20;;
21979;SDS011;11154;48.558;9.234;2023-02-01T11:45:13;4.45;;;1.60;;
21979;SDS011;11154;48.558;9.234;2023-02-01T11:47:24;6.70;;;2.13;;
21979;SDS011;11154;48.558;9.234;2023-02-01T11:49:27;4.13;;;1.65;;
21979;SDS011;11154;48.558;9.234;2023-02-01T11:51:41;5.65;;;1.70;;
21979;SDS011;11154;48.558;9.234;2023-02-01T11:53:58;6.63;;;1.95;;
21979;SDS011;11154;48.558;9.234;2023-02-01T11:56:12;6.18;;;2.70;;
21979;SDS011;11154;48.558;9.234;2023-02-01T12:01:27;5.47;;;1.75;;
21979;SDS011;11154;48.558;9.234;2023-02-01T12:03:46;8.50;;;2.25;;
21979;SDS011;11154;48.558;9.234;2023-02-01T12:06:13;8.00;;;2.28;;
21979;SDS011;11154;48.558;9.234;2023-02-01T12:10:56;4.95;;;1.98;;
21979;SDS011;11154;48.558;9.234;2023-02-01T12:13:25;3.78;;;1.70;;
21979;SDS011;11154;48.558;9.234;2023-02-01T12:15:41;2.90;;;1.55;;
21979;SDS011;11154;48.558;9.234;2023-02-01T12:17:56;4.75;;;1.83;;
21979;SDS011;11154;48.558;9.234;2023-02-01T12:20:18;4.68;;;1.80;;
21979;SDS011;11154;48.558;9.234;2023-02-01T12:22:37;3.13;;;1.67;;
21979;SDS011;11154;48.558;9.234;2023-02-01T12:24:50;3.42;;;1.75;;
21979;SDS011;11154;48.558;9.234;2023-02-01T12:27:05;3.28;;;1.58;;
21979;SDS011;11154;48.558;9.234;2023-02-01T12:29:30;8.57;;;3.25;;
21979;SDS011;11154;48.558;9.234;2023-02-01T12:31:43;8.25;;;4.22;;
21979;SDS011;11154;48.558;9.234;2023-02-01T12:36:35;7.55;;;2.58;;
21979;SDS011;11154;48.558;9.234;2023-02-01T12:38:49;6.30;;;2.45;;
21979;SDS011;11154;48.558;9.234;2023-02-01T12:40:59;6.40;;;2.75;;
21979;SDS011;11154;48.558;9.234;2023-02-01T12:43:11;6.30;;;2.50;;
21979;SDS011;11154;48.558;9.234;2023-02-01T12:45:25;5.38;;;2.40;;
21979;SDS011;11154;48.558;9.234;2023-02-01T12:47:32;5.78;;;2.20;;
21979;SDS011;11154;48.558;9.234;2023-02-01T12:49:41;6.00;;;2.13;;
21979;SDS011;11154;48.558;9.234;2023-02-01T12:51:50;7.03;;;2.20;;